Time;durP1;ratioP1;P1;durP2;ratioP2;P2;SDS_P1;SDS_P2;PMS_P1;PMS_P2;Temp;Humidity;BMP_temperature;BMP_pressure;BME280_temperature;BME280_humidity;BME280_pressure;Samples;Min_cycle;Max_cycle;Signal;HPM_P1;HPM_P2
2021/03/25 00:00:49;;;;;;;30.83;16.33;;;;;;;;;;5066143;28;20212;-45
2021/03/25 00:03:17;;;;;;;32.07;16.43;;;;;;;;;;5065921;28;20189;-49
2021/03/25 00:05:43;;;;;;;32.00;15.93;;;;;;;;;;5061498;28;20213;-45
2021/03/25 00:08:12;;;;;;;30.47;16.20;;;;;;;;;;5066155;28;20192;-44
2021/03/25 00:10:39;;;;;;;30.77;14.40;;;;;;;;;;5067361;28;20268;-44
2021/03/25 00:13:05;;;;;;;25.93;14.13;;;;;;;;;;5061866;28;20188;-46
2021/03/25 00:15:31;;;;;;;26.43;15.03;;;;;;;;;;5065586;28;20197;-44
2021/03/25 00:17:57;;;;;;;29.87;15.03;;;;;;;;;;5065146;28;20608;-45
2021/03/25 00:20:23;;;;;;;34.60;17.40;;;;;;;;;;5065990;28;20189;-44
2021/03/25 00:22:48;;;;;;;34.93;17.10;;;;;;;;;;5064881;28;20243;-45
2021/03/25 00:25:17;;;;;;;34.03;16.33;;;;;;;;;;5066239;28;20208;-46
2021/03/25 00:27:43;;;;;;;31.53;14.23;;;;;;;;;;5064134;28;20185;-45
2021/03/25 00:30:10;;;;;;;26.90;16.30;;;;;;;;;;5065569;28;20200;-45
2021/03/25 00:32:35;;;;;;;28.70;15.73;;;;;;;;;;5067535;28;20181;-44
2021/03/25 00:35:01;;;;;;;33.77;16.27;;;;;;;;;;5067011;28;20215;-45
2021/03/25 00:37:26;;;;;;;32.23;15.97;;;;;;;;;;5067266;28;20284;-45
2021/03/25 00:39:52;;;;;;;33.97;16.37;;;;;;;;;;5058074;28;20196;-44
2021/03/25 00:42:17;;;;;;;27.63;14.13;;;;;;;;;;5065972;28;20177;-45
2021/03/25 00:44:42;;;;;;;25.57;14.10;;;;;;;;;;5066471;28;20235;-45
2021/03/25 00:47:08;;;;;;;33.40;16.40;;;;;;;;;;5064411;28;20227;-45
2021/03/25 00:49:34;;;;;;;29.47;15.37;;;;;;;;;;5066334;28;20584;-44
2021/03/25 00:52:00;;;;;;;35.33;14.57;;;;;;;;;;5066191;28;20177;-44
2021/03/25 00:54:25;;;;;;;27.83;15.27;;;;;;;;;;5066214;28;20189;-45
2021/03/25 00:56:50;;;;;;;26.10;16.07;;;;;;;;;;5065013;28;20609;-44
2021/03/25 00:59:15;;;;;;;28.20;14.23;;;;;;;;;;5069143;28;20201;-45
2021/03/25 01:01:42;;;;;;;28.30;13.50;;;;;;;;;;5070139;28;20276;-45
2021/03/25 01:04:08;;;;;;;36.00;13.33;;;;;;;;;;5070246;28;20185;-45
2021/03/25 01:06:33;;;;;;;28.70;14.93;;;;;;;;;;5070093;28;20212;-46
2021/03/25 01:08:59;;;;;;;27.90;14.87;;;;;;;;;;5069391;28;20190;-45
2021/03/25 01:11:28;;;;;;;30.13;14.87;;;;;;;;;;5070696;28;20186;-49
2021/03/25 01:13:57;;;;;;;29.10;14.33;;;;;;;;;;5086152;28;20263;-46
2021/03/25 01:16:28;;;;;;;31.70;16.80;;;;;;;;;;5068513;28;20213;-48
2021/03/25 01:18:57;;;;;;;32.70;16.10;;;;;;;;;;5069920;28;20198;-45
2021/03/25 01:21:23;;;;;;;34.47;15.47;;;;;;;;;;5066199;28;20228;-44
2021/03/25 01:23:48;;;;;;;34.43;16.03;;;;;;;;;;5069318;28;20242;-45
2021/03/25 01:26:13;;;;;;;35.47;17.43;;;;;;;;;;5065684;28;20217;-45
2021/03/25 01:28:41;;;;;;;31.10;15.33;;;;;;;;;;5070622;28;20185;-44
2021/03/25 01:31:06;;;;;;;35.73;17.77;;;;;;;;;;5069836;28;20573;-46
2021/03/25 01:33:31;;;;;;;34.47;16.97;;;;;;;;;;5070331;28;20189;-44
2021/03/25 01:35:57;;;;;;;32.33;17.30;;;;;;;;;;5067150;28;20208;-45
2021/03/25 01:38:23;;;;;;;32.93;17.33;;;;;;;;;;5070078;28;20190;-44
2021/03/25 01:40:55;;;;;;;35.50;16.53;;;;;;;;;;5068221;28;20238;-47
2021/03/25 01:43:31;;;;;;;32.90;17.53;;;;;;;;;;5071003;28;20622;-44
2021/03/25 01:46:13;;;;;;;36.20;19.73;;;;;;;;;;5072034;28;20620;-44
2021/03/25 01:48:39;;;;;;;40.70;20.50;;;;;;;;;;5058123;28;20190;-46
2021/03/25 01:51:16;;;;;;;32.40;18.00;;;;;;;;;;5067951;28;20711;-46
2021/03/25 01:54:00;;;;;;;34.47;16.97;;;;;;;;;;5078926;28;20661;-45
2021/03/25 01:56:55;;;;;;;41.77;18.03;;;;;;;;;;5067110;28;20254;-46
2021/03/25 01:59:40;;;;;;;36.07;15.33;;;;;;;;;;5059106;28;20244;-45
2021/03/25 02:02:26;;;;;;;28.47;15.47;;;;;;;;;;5068499;28;20266;-45
2021/03/25 02:05:00;;;;;;;29.60;15.10;;;;;;;;;;5067709;28;20216;-46
2021/03/25 02:07:37;;;;;;;29.93;14.23;;;;;;;;;;5069135;28;20197;-45
2021/03/25 02:10:41;;;;;;;30.17;14.90;;;;;;;;;;5066786;28;20216;-46
2021/03/25 02:13:26;;;;;;;29.60;14.97;;;;;;;;;;5066884;28;20221;-46
2021/03/25 02:15:54;;;;;;;33.83;18.37;;;;;;;;;;5068977;28;20797;-44
2021/03/25 02:18:33;;;;;;;31.03;16.50;;;;;;;;;;5068897;28;20562;-45
2021/03/25 02:21:15;;;;;;;28.63;15.70;;;;;;;;;;5067930;28;20203;-46
2021/03/25 02:23:46;;;;;;;31.23;16.23;;;;;;;;;;5069615;28;20193;-45
2021/03/25 02:26:21;;;;;;;26.23;15.80;;;;;;;;;;5064763;28;20258;-45
2021/03/25 02:28:46;;;;;;;22.70;14.10;;;;;;;;;;5068001;28;20180;-44
2021/03/25 02:31:17;;;;;;;29.73;14.47;;;;;;;;;;5069909;28;20189;-44
2021/03/25 02:33:47;;;;;;;23.73;13.80;;;;;;;;;;5068522;28;20194;-45
2021/03/25 02:36:16;;;;;;;24.87;15.03;;;;;;;;;;5060939;28;20217;-45
2021/03/25 02:39:05;;;;;;;37.70;17.20;;;;;;;;;;5068128;28;20193;-45
2021/03/25 02:41:36;;;;;;;32.17;16.67;;;;;;;;;;5069893;28;20178;-45
2021/03/25 02:44:11;;;;;;;27.37;15.27;;;;;;;;;;5069218;28;20189;-44
2021/03/25 02:46:53;;;;;;;29.87;15.93;;;;;;;;;;5068520;28;20207;-45
2021/03/25 02:49:28;;;;;;;30.73;16.10;;;;;;;;;;5054787;28;21269;-45
2021/03/25 02:52:08;;;;;;;32.60;17.20;;;;;;;;;;5067708;28;20576;-45
2021/03/25 02:54:33;;;;;;;36.30;18.43;;;;;;;;;;5068265;28;20188;-44
2021/03/25 02:57:09;;;;;;;39.40;19.83;;;;;;;;;;5068051;28;20205;-46
2021/03/25 02:59:39;;;;;;;37.77;17.90;;;;;;;;;;5067915;28;20216;-46
2021/03/25 03:02:30;;;;;;;32.23;16.63;;;;;;;;;;5068096;28;20650;-45
2021/03/25 03:05:01;;;;;;;33.53;17.20;;;;;;;;;;5068274;28;20207;-45
2021/03/25 03:07:34;;;;;;;32.80;17.30;;;;;;;;;;5067614;28;20200;-46
2021/03/25 03:10:05;;;;;;;33.10;17.17;;;;;;;;;;5067718;28;20219;-44
2021/03/25 03:12:36;;;;;;;31.60;13.27;;;;;;;;;;5067155;28;20205;-46
2021/03/25 03:15:11;;;;;;;28.80;15.50;;;;;;;;;;5066739;28;20212;-46
2021/03/25 03:17:46;;;;;;;33.43;17.00;;;;;;;;;;5065398;28;20228;-44
2021/03/25 03:20:18;;;;;;;33.77;17.20;;;;;;;;;;5065750;28;20193;-45
2021/03/25 03:22:44;;;;;;;37.47;16.73;;;;;;;;;;5067385;28;20258;-44
2021/03/25 03:25:22;;;;;;;38.83;17.40;;;;;;;;;;5068190;28;20209;-45
2021/03/25 03:28:01;;;;;;;30.03;16.90;;;;;;;;;;5067155;28;20193;-48
2021/03/25 03:30:33;;;;;;;37.23;17.90;;;;;;;;;;5062278;28;20201;-44
2021/03/25 03:33:09;;;;;;;36.83;18.00;;;;;;;;;;5061340;28;20211;-45
2021/03/25 03:35:42;;;;;;;40.23;18.57;;;;;;;;;;5063985;28;20220;-45
2021/03/25 03:38:17;;;;;;;35.77;18.97;;;;;;;;;;5067014;28;20189;-46
2021/03/25 03:40:47;;;;;;;35.27;18.60;;;;;;;;;;5066653;28;20227;-44
2021/03/25 03:43:14;;;;;;;39.80;19.10;;;;;;;;;;5065600;28;20244;-45
2021/03/25 03:46:03;;;;;;;41.10;19.60;;;;;;;;;;5062957;28;20217;-46
2021/03/25 03:48:36;;;;;;;35.70;17.93;;;;;;;;;;5056404;28;20189;-44
2021/03/25 03:51:04;;;;;;;38.90;17.70;;;;;;;;;;5066634;28;20656;-45
2021/03/25 03:53:30;;;;;;;40.13;19.37;;;;;;;;;;5066228;28;20185;-45
2021/03/25 03:56:06;;;;;;;38.30;19.23;;;;;;;;;;5068329;28;20330;-48
2021/03/25 03:58:41;;;;;;;41.67;19.43;;;;;;;;;;5065198;28;20196;-45
2021/03/25 04:01:12;;;;;;;43.00;21.43;;;;;;;;;;5064014;28;20199;-45
2021/03/25 04:03:47;;;;;;;44.50;20.87;;;;;;;;;;5067634;28;20194;-45
2021/03/25 04:06:22;;;;;;;49.33;22.63;;;;;;;;;;5063701;28;20653;-46
2021/03/25 04:09:06;;;;;;;35.47;18.37;;;;;;;;;;5067514;28;20685;-45
2021/03/25 04:11:45;;;;;;;40.87;18.53;;;;;;;;;;5067283;28;20835;-44
2021/03/25 04:14:15;;;;;;;37.73;18.17;;;;;;;;;;5064918;28;20193;-44
2021/03/25 04:16:43;;;;;;;44.40;20.03;;;;;;;;;;5057990;28;20207;-45
2021/03/25 04:19:15;;;;;;;54.73;23.57;;;;;;;;;;5066339;28;20205;-44
2021/03/25 04:21:52;;;;;;;48.13;22.17;;;;;;;;;;5068252;28;20189;-43
2021/03/25 04:24:22;;;;;;;52.13;23.70;;;;;;;;;;5066758;28;20264;-45
2021/03/25 04:27:10;;;;;;;50.50;21.27;;;;;;;;;;5066792;28;20345;-44
2021/03/25 04:29:41;;;;;;;32.27;17.13;;;;;;;;;;5058858;28;20265;-47
2021/03/25 04:32:07;;;;;;;40.47;21.60;;;;;;;;;;5061416;28;20226;-44
2021/03/25 04:34:33;;;;;;;47.00;22.67;;;;;;;;;;5071298;28;20567;-45
2021/03/25 04:36:59;;;;;;;44.50;21.93;;;;;;;;;;5067426;28;20217;-45
2021/03/25 04:39:25;;;;;;;41.30;19.47;;;;;;;;;;5070146;28;20220;-44
2021/03/25 04:41:52;;;;;;;40.20;20.77;;;;;;;;;;5069726;28;20181;-44
2021/03/25 04:44:45;;;;;;;37.13;19.57;;;;;;;;;;5071026;28;20193;-45
2021/03/25 04:47:25;;;;;;;48.30;23.63;;;;;;;;;;5061431;28;20209;-45
2021/03/25 04:50:16;;;;;;;40.63;21.43;;;;;;;;;;5070075;28;20192;-45
2021/03/25 04:52:41;;;;;;;49.43;24.93;;;;;;;;;;5058559;28;20255;-45
2021/03/25 04:55:09;;;;;;;50.87;24.60;;;;;;;;;;5068557;28;20700;-45
2021/03/25 04:57:38;;;;;;;51.87;23.97;;;;;;;;;;5071714;28;20189;-44
2021/03/25 05:00:12;;;;;;;57.27;27.33;;;;;;;;;;5071443;28;20566;-45
2021/03/25 05:02:39;;;;;;;32.60;17.47;;;;;;;;;;5069605;28;20663;-46
2021/03/25 05:05:06;;;;;;;29.40;16.63;;;;;;;;;;5051706;28;20201;-46
2021/03/25 05:07:35;;;;;;;24.83;14.13;;;;;;;;;;5069659;28;20198;-45
2021/03/25 05:10:12;;;;;;;25.90;14.27;;;;;;;;;;5070219;28;20284;-47
2021/03/25 05:12:37;;;;;;;25.80;14.57;;;;;;;;;;5070477;28;20592;-44
2021/03/25 05:15:12;;;;;;;25.40;15.40;;;;;;;;;;5066866;28;20217;-46
2021/03/25 05:18:10;;;;;;;28.00;15.27;;;;;;;;;;5066507;28;20579;-45
2021/03/25 05:20:42;;;;;;;28.37;15.83;;;;;;;;;;5066754;28;20193;-46
2021/03/25 05:23:37;;;;;;;32.40;15.50;;;;;;;;;;5070632;28;20215;-46
2021/03/25 05:26:11;;;;;;;26.73;14.90;;;;;;;;;;5064096;28;20763;-46
2021/03/25 05:28:43;;;;;;;30.50;14.63;;;;;;;;;;5066535;28;20200;-45
2021/03/25 05:31:12;;;;;;;26.50;14.80;;;;;;;;;;5064411;28;20205;-44
2021/03/25 05:33:38;;;;;;;30.77;14.27;;;;;;;;;;5065157;28;20201;-46
2021/03/25 05:36:09;;;;;;;26.93;13.97;;;;;;;;;;5069863;28;20212;-45
2021/03/25 05:38:35;;;;;;;24.83;14.33;;;;;;;;;;5067485;28;20259;-45
2021/03/25 05:41:07;;;;;;;24.80;14.73;;;;;;;;;;5068545;28;20185;-44
2021/03/25 05:44:03;;;;;;;23.93;13.57;;;;;;;;;;5067492;28;20375;-44
2021/03/25 05:47:22;;;;;;;25.10;13.70;;;;;;;;;;5063482;28;20220;-45
2021/03/25 05:50:12;;;;;;;20.63;12.73;;;;;;;;;;5067941;28;20552;-45
2021/03/25 05:53:03;;;;;;;28.87;13.87;;;;;;;;;;5067602;28;20185;-44
2021/03/25 05:55:51;;;;;;;25.67;15.37;;;;;;;;;;5069298;28;20209;-44
2021/03/25 05:58:32;;;;;;;27.20;14.47;;;;;;;;;;5069109;28;20209;-45
2021/03/25 06:01:20;;;;;;;21.27;12.93;;;;;;;;;;5066533;28;20208;-45
2021/03/25 06:04:09;;;;;;;22.50;13.70;;;;;;;;;;5067928;28;20614;-46
2021/03/25 06:07:10;;;;;;;27.47;14.77;;;;;;;;;;5067033;28;20258;-46
2021/03/25 06:09:52;;;;;;;32.13;16.57;;;;;;;;;;5066963;28;20564;-45
2021/03/25 06:12:50;;;;;;;32.20;17.30;;;;;;;;;;5062377;28;20722;-45
2021/03/25 06:15:39;;;;;;;26.60;14.40;;;;;;;;;;5062083;28;20693;-45
2021/03/25 06:18:20;;;;;;;31.03;17.13;;;;;;;;;;5069260;28;20189;-46
2021/03/25 06:20:49;;;;;;;31.20;17.50;;;;;;;;;;5067450;28;20243;-44
2021/03/25 06:23:26;;;;;;;33.10;18.77;;;;;;;;;;5068041;28;20186;-45
2021/03/25 06:26:23;;;;;;;40.67;19.70;;;;;;;;;;5065625;28;20232;-45
2021/03/25 06:28:53;;;;;;;37.43;19.67;;;;;;;;;;5067265;28;20890;-45
2021/03/25 06:31:29;;;;;;;37.30;20.67;;;;;;;;;;5067203;28;20186;-48
2021/03/25 06:34:01;;;;;;;41.47;21.33;;;;;;;;;;5069594;28;20193;-49
2021/03/25 06:36:44;;;;;;;34.27;20.83;;;;;;;;;;5066239;28;20263;-45
2021/03/25 06:39:28;;;;;;;41.97;22.57;;;;;;;;;;5061643;28;20197;-45
2021/03/25 06:42:15;;;;;;;38.53;22.77;;;;;;;;;;5066551;28;20189;-46
2021/03/25 06:44:57;;;;;;;40.57;23.57;;;;;;;;;;5065208;28;20193;-46
2021/03/25 06:48:01;;;;;;;35.53;20.87;;;;;;;;;;5067397;28;20189;-46
2021/03/25 06:51:16;;;;;;;41.47;21.90;;;;;;;;;;5057441;28;20213;-46
2021/03/25 06:53:41;;;;;;;36.83;21.80;;;;;;;;;;4984357;28;20268;-43
2021/03/25 06:56:14;;;;;;;34.47;21.83;;;;;;;;;;5053966;28;20280;-45
2021/03/25 06:58:49;;;;;;;35.90;21.50;;;;;;;;;;5068602;28;20201;-46
2021/03/25 07:01:42;;;;;;;36.40;23.10;;;;;;;;;;5067357;28;20227;-45
2021/03/25 07:04:26;;;;;;;34.43;22.13;;;;;;;;;;5060294;28;20265;-46
2021/03/25 07:06:53;;;;;;;38.33;23.70;;;;;;;;;;5068213;28;20231;-44
2021/03/25 07:09:28;;;;;;;38.37;24.53;;;;;;;;;;5068009;28;20293;-45
2021/03/25 07:11:55;;;;;;;39.40;23.40;;;;;;;;;;5067057;28;20215;-45
2021/03/25 07:14:37;;;;;;;38.27;23.87;;;;;;;;;;5068670;28;20193;-44
2021/03/25 07:17:05;;;;;;;41.53;24.17;;;;;;;;;;5063479;28;20217;-45
2021/03/25 07:19:34;;;;;;;42.37;24.63;;;;;;;;;;5066329;28;20247;-46
2021/03/25 07:22:18;;;;;;;39.17;24.90;;;;;;;;;;5067540;28;20217;-43
2021/03/25 07:24:44;;;;;;;42.83;25.43;;;;;;;;;;5042862;28;20208;-45
2021/03/25 07:27:12;;;;;;;41.17;24.17;;;;;;;;;;5065481;28;20196;-46
2021/03/25 07:29:41;;;;;;;40.27;24.20;;;;;;;;;;5066820;28;20711;-42
2021/03/25 07:32:08;;;;;;;43.53;25.27;;;;;;;;;;5063137;28;20189;-47
2021/03/25 07:34:48;;;;;;;37.50;23.73;;;;;;;;;;5067375;28;20197;-44
2021/03/25 07:37:16;;;;;;;41.00;24.97;;;;;;;;;;5067894;28;20635;-46
2021/03/25 07:39:49;;;;;;;38.33;24.57;;;;;;;;;;5062678;28;20216;-45
2021/03/25 07:42:34;;;;;;;34.70;22.80;;;;;;;;;;5067606;28;20193;-46
2021/03/25 07:45:21;;;;;;;36.70;22.57;;;;;;;;;;5065227;28;20212;-45
2021/03/25 07:47:47;;;;;;;38.37;22.90;;;;;;;;;;5064059;28;20458;-49
2021/03/25 07:50:25;;;;;;;33.80;22.00;;;;;;;;;;5065900;28;20200;-46
2021/03/25 07:52:52;;;;;;;36.17;20.97;;;;;;;;;;5067385;28;20196;-45
2021/03/25 07:55:20;;;;;;;36.70;20.97;;;;;;;;;;5065991;28;20230;-45
2021/03/25 07:57:47;;;;;;;38.30;21.80;;;;;;;;;;5064409;28;20201;-45
2021/03/25 08:00:23;;;;;;;32.10;20.73;;;;;;;;;;5066614;28;20189;-45
2021/03/25 08:03:08;;;;;;;36.03;22.00;;;;;;;;;;5065966;28;20269;-45
2021/03/25 08:05:34;;;;;;;41.13;20.50;;;;;;;;;;5064604;28;20530;-46
2021/03/25 08:08:05;;;;;;;39.47;21.90;;;;;;;;;;5066662;28;20278;-45
2021/03/25 08:10:43;;;;;;;38.80;21.53;;;;;;;;;;5062946;28;20230;-46
2021/03/25 08:13:27;;;;;;;38.20;20.53;;;;;;;;;;5065907;28;20567;-46
2021/03/25 08:16:11;;;;;;;41.03;21.50;;;;;;;;;;5064186;28;20209;-46
2021/03/25 08:18:58;;;;;;;39.80;22.70;;;;;;;;;;5065948;28;20238;-46
2021/03/25 08:21:30;;;;;;;32.63;20.03;;;;;;;;;;5062489;28;20181;-45
2021/03/25 08:24:20;;;;;;;37.70;22.33;;;;;;;;;;5073640;28;20182;-45
2021/03/25 08:26:45;;;;;;;33.10;20.70;;;;;;;;;;5066082;28;20213;-45
2021/03/25 08:29:30;;;;;;;36.97;21.53;;;;;;;;;;5066385;28;20196;-45
2021/03/25 08:32:18;;;;;;;36.97;21.13;;;;;;;;;;5064422;28;20185;-45
2021/03/25 08:34:46;;;;;;;39.10;21.23;;;;;;;;;;5055216;28;20188;-45
2021/03/25 08:37:19;;;;;;;42.10;22.97;;;;;;;;;;5065544;28;20197;-45
2021/03/25 08:40:00;;;;;;;42.70;24.90;;;;;;;;;;5056484;28;20208;-45
2021/03/25 08:42:38;;;;;;;43.10;25.67;;;;;;;;;;5053280;28;20196;-47
2021/03/25 08:45:09;;;;;;;46.37;25.17;;;;;;;;;;5071612;28;20233;-45
2021/03/25 08:47:43;;;;;;;44.20;25.90;;;;;;;;;;5063789;28;20916;-44
2021/03/25 08:50:47;;;;;;;43.73;25.00;;;;;;;;;;5065097;28;20234;-45
2021/03/25 08:53:25;;;;;;;44.53;22.60;;;;;;;;;;4985550;28;20228;-44
2021/03/25 08:55:55;;;;;;;44.27;23.73;;;;;;;;;;4984416;28;20914;-45
2021/03/25 08:58:25;;;;;;;45.77;26.53;;;;;;;;;;5037555;28;20197;-45
2021/03/25 09:00:56;;;;;;;44.97;23.80;;;;;;;;;;5065725;28;20276;-45
2021/03/25 09:03:24;;;;;;;45.83;24.80;;;;;;;;;;5065402;28;20224;-45
2021/03/25 09:06:01;;;;;;;46.93;25.80;;;;;;;;;;5067182;28;20212;-45
2021/03/25 09:08:28;;;;;;;47.67;27.13;;;;;;;;;;5061283;28;20239;-45
2021/03/25 09:11:02;;;;;;;49.60;26.17;;;;;;;;;;5066478;28;20217;-44
2021/03/25 09:13:30;;;;;;;48.30;27.33;;;;;;;;;;5060606;28;20275;-44
2021/03/25 09:16:05;;;;;;;47.50;28.17;;;;;;;;;;5066922;28;20360;-45
2021/03/25 09:18:31;;;;;;;48.83;28.53;;;;;;;;;;5066279;28;20199;-45
2021/03/25 09:21:09;;;;;;;47.57;28.27;;;;;;;;;;5065691;28;20284;-46
2021/03/25 09:23:40;;;;;;;44.50;26.87;;;;;;;;;;5068416;28;20645;-45
2021/03/25 09:26:08;;;;;;;48.00;30.33;;;;;;;;;;5068044;28;20373;-45
2021/03/25 09:28:52;;;;;;;46.43;31.00;;;;;;;;;;5064523;28;20268;-44
2021/03/25 09:31:17;;;;;;;53.07;32.20;;;;;;;;;;5069376;28;20196;-45
2021/03/25 09:33:56;;;;;;;54.83;33.30;;;;;;;;;;5068967;28;20243;-46
2021/03/25 09:36:21;;;;;;;51.33;34.27;;;;;;;;;;5067639;28;20215;-45
2021/03/25 09:38:58;;;;;;;47.43;32.17;;;;;;;;;;5068243;28;20207;-45
2021/03/25 09:41:31;;;;;;;52.97;34.67;;;;;;;;;;5066868;28;20601;-45
2021/03/25 09:44:05;;;;;;;49.10;33.57;;;;;;;;;;5064245;28;20533;-48
2021/03/25 09:46:30;;;;;;;54.93;36.83;;;;;;;;;;5068170;28;20320;-44
2021/03/25 09:49:13;;;;;;;56.00;36.00;;;;;;;;;;5070044;28;20186;-43
2021/03/25 09:51:38;;;;;;;53.70;35.47;;;;;;;;;;5069293;28;20209;-49
2021/03/25 09:54:16;;;;;;;56.80;36.50;;;;;;;;;;5065157;28;20209;-45
2021/03/25 09:56:42;;;;;;;51.97;35.47;;;;;;;;;;5069190;28;20224;-45
2021/03/25 09:59:46;;;;;;;50.13;33.97;;;;;;;;;;5069487;28;20186;-44
2021/03/25 10:02:12;;;;;;;48.13;33.60;;;;;;;;;;5065971;28;20193;-45
2021/03/25 10:04:39;;;;;;;46.22;30.35;;;;;;;;;;5062662;28;20184;-45
2021/03/25 10:07:14;;;;;;;48.03;32.65;;;;;;;;;;5067948;28;20177;-45
2021/03/25 10:09:48;;;;;;;50.40;33.00;;;;;;;;;;5068037;28;20189;-46
2021/03/25 10:12:52;;;;;;;50.57;34.17;;;;;;;;;;5066962;28;20193;-46
2021/03/25 10:15:27;;;;;;;54.27;33.70;;;;;;;;;;5065983;28;20220;-46
2021/03/25 10:17:53;;;;;;;49.93;33.83;;;;;;;;;;5066601;28;20208;-45
2021/03/25 10:20:59;;;;;;;51.17;33.40;;;;;;;;;;5066986;28;20189;-44
2021/03/25 10:23:32;;;;;;;52.07;33.87;;;;;;;;;;5061920;28;20192;-45
2021/03/25 10:26:37;;;;;;;52.50;36.33;;;;;;;;;;5078141;28;20219;-47
2021/03/25 10:29:06;;;;;;;60.07;37.83;;;;;;;;;;5063860;28;20263;-45
2021/03/25 10:31:43;;;;;;;51.30;34.30;;;;;;;;;;5065689;28;20570;-46
2021/03/25 10:34:40;;;;;;;56.17;37.40;;;;;;;;;;5063977;28;20185;-45
2021/03/25 10:37:32;;;;;;;53.10;33.30;;;;;;;;;;5068023;28;20201;-45
2021/03/25 10:40:06;;;;;;;50.37;36.20;;;;;;;;;;5068816;28;20277;-44
2021/03/25 10:42:39;;;;;;;53.20;36.03;;;;;;;;;;5064465;28;20713;-44
2021/03/25 10:45:22;;;;;;;57.70;37.35;;;;;;;;;;5067442;28;20212;-45
2021/03/25 10:47:53;;;;;;;51.65;33.22;;;;;;;;;;5065740;28;20243;-44
2021/03/25 10:50:22;;;;;;;53.33;36.93;;;;;;;;;;5065684;28;20609;-45
2021/03/25 10:52:48;;;;;;;52.50;34.73;;;;;;;;;;5069135;28;20247;-45
2021/03/25 10:55:28;;;;;;;55.43;36.40;;;;;;;;;;5065467;28;20584;-45
2021/03/25 10:57:56;;;;;;;57.47;35.93;;;;;;;;;;5071868;28;20234;-44
2021/03/25 11:00:35;;;;;;;57.23;37.03;;;;;;;;;;5065333;28;20185;-45
2021/03/25 11:03:02;;;;;;;57.90;36.73;;;;;;;;;;5066644;28;20185;-44
2021/03/25 11:05:35;;;;;;;54.10;36.00;;;;;;;;;;5060929;28;20231;-46
2021/03/25 11:08:02;;;;;;;51.60;36.85;;;;;;;;;;5065525;28;20185;-45
2021/03/25 11:10:33;;;;;;;54.63;37.30;;;;;;;;;;5066316;28;20676;-45
2021/03/25 11:13:23;;;;;;;59.67;37.30;;;;;;;;;;5068206;28;20185;-44
2021/03/25 11:15:57;;;;;;;51.50;36.47;;;;;;;;;;5082130;28;20586;-44
2021/03/25 11:18:24;;;;;;;54.13;38.23;;;;;;;;;;5066831;28;20181;-45
2021/03/25 11:20:52;;;;;;;51.43;36.73;;;;;;;;;;5081852;28;20865;-45
2021/03/25 11:23:23;;;;;;;50.60;34.83;;;;;;;;;;5067981;28;20665;-47
2021/03/25 11:25:58;;;;;;;53.58;37.38;;;;;;;;;;5063005;28;20204;-44
2021/03/25 11:28:24;;;;;;;50.22;35.58;;;;;;;;;;5064235;28;20185;-44
2021/03/25 11:31:14;;;;;;;53.85;34.92;;;;;;;;;;5061530;28;20200;-45
2021/03/25 11:33:39;;;;;;;59.00;38.07;;;;;;;;;;5067301;28;20211;-47
2021/03/25 11:36:06;;;;;;;52.78;35.20;;;;;;;;;;5067787;28;20202;-45
2021/03/25 11:38:43;;;;;;;52.80;37.85;;;;;;;;;;5066738;28;20598;-45
2021/03/25 11:41:20;;;;;;;54.17;36.67;;;;;;;;;;5058101;28;20181;-46
2021/03/25 11:43:51;;;;;;;51.88;34.33;;;;;;;;;;5063248;28;20596;-47
2021/03/25 11:46:46;;;;;;;50.65;32.92;;;;;;;;;;5068605;28;20197;-46
2021/03/25 11:49:22;;;;;;;48.97;34.10;;;;;;;;;;5067525;28;20192;-45
2021/03/25 11:52:02;;;;;;;53.83;35.20;;;;;;;;;;5046875;28;20259;-50
2021/03/25 11:54:32;;;;;;;51.17;35.90;;;;;;;;;;5057784;28;20216;-45
2021/03/25 11:57:06;;;;;;;50.80;35.97;;;;;;;;;;5067117;28;20198;-46
2021/03/25 11:59:38;;;;;;;55.10;38.70;;;;;;;;;;5066627;28;20552;-45
2021/03/25 12:02:21;;;;;;;52.60;36.78;;;;;;;;;;5067012;28;20181;-45
2021/03/25 12:04:51;;;;;;;51.78;35.90;;;;;;;;;;5061296;28;20256;-45
2021/03/25 12:07:25;;;;;;;56.08;36.45;;;;;;;;;;5066307;28;20217;-44
2021/03/25 12:10:00;;;;;;;51.22;34.95;;;;;;;;;;5067186;28;20184;-44
2021/03/25 12:12:25;;;;;;;48.40;34.92;;;;;;;;;;5064808;28;20189;-46
2021/03/25 12:14:51;;;;;;;49.42;34.85;;;;;;;;;;5065928;28;20213;-45
2021/03/25 12:17:16;;;;;;;54.05;36.50;;;;;;;;;;5064118;28;20205;-45
2021/03/25 12:19:42;;;;;;;54.22;34.85;;;;;;;;;;5067928;28;20196;-45
2021/03/25 12:22:11;;;;;;;49.15;34.42;;;;;;;;;;5065719;28;20189;-44
2021/03/25 12:24:36;;;;;;;52.30;35.17;;;;;;;;;;5054153;28;20295;-45
2021/03/25 12:27:02;;;;;;;47.63;33.05;;;;;;;;;;5065229;28;20268;-45
2021/03/25 12:29:27;;;;;;;48.75;34.15;;;;;;;;;;5068017;28;20679;-45
2021/03/25 12:31:53;;;;;;;53.22;35.33;;;;;;;;;;5064983;28;20189;-45
2021/03/25 12:34:18;;;;;;;48.60;31.85;;;;;;;;;;5065324;28;20246;-46
2021/03/25 12:36:43;;;;;;;48.85;31.35;;;;;;;;;;5067394;28;20205;-44
2021/03/25 12:39:11;;;;;;;47.85;31.77;;;;;;;;;;5066619;28;20189;-44
2021/03/25 12:41:42;;;;;;;45.50;30.92;;;;;;;;;;5065406;28;20255;-45
2021/03/25 12:44:09;;;;;;;44.38;30.42;;;;;;;;;;5066159;28;20193;-45
2021/03/25 12:46:34;;;;;;;44.40;31.42;;;;;;;;;;5067671;28;20232;-45
2021/03/25 12:49:00;;;;;;;47.83;32.30;;;;;;;;;;5067020;28;20665;-45
2021/03/25 12:51:25;;;;;;;42.78;30.00;;;;;;;;;;5065648;28;20209;-45
2021/03/25 12:53:51;;;;;;;44.83;30.67;;;;;;;;;;5071328;28;20702;-45
2021/03/25 12:56:23;;;;;;;46.95;31.55;;;;;;;;;;5070182;28;20209;-45
2021/03/25 12:58:50;;;;;;;44.75;29.83;;;;;;;;;;5065731;28;20185;-47
2021/03/25 13:01:24;;;;;;;45.17;30.00;;;;;;;;;;5067883;28;20243;-45
2021/03/25 13:03:50;;;;;;;43.20;29.08;;;;;;;;;;5071043;28;20609;-45
2021/03/25 13:06:16;;;;;;;43.72;29.08;;;;;;;;;;5066466;28;20266;-45
2021/03/25 13:08:42;;;;;;;41.65;29.85;;;;;;;;;;5068944;28;20193;-45
2021/03/25 13:11:26;;;;;;;42.58;29.15;;;;;;;;;;5068510;28;20189;-45
2021/03/25 13:16:20;;;;;;;45.88;29.42;;;;;;;;;;5063501;28;20287;-48
2021/03/25 13:18:45;;;;;;;42.88;29.00;;;;;;;;;;5063534;28;20571;-48
2021/03/25 13:21:11;;;;;;;43.83;30.42;;;;;;;;;;5069300;28;20272;-47
2021/03/25 13:23:36;;;;;;;43.00;30.63;;;;;;;;;;5047685;28;20272;-48
2021/03/25 13:26:03;;;;;;;44.97;29.58;;;;;;;;;;5087967;28;20683;-48
2021/03/25 13:28:29;;;;;;;43.67;30.02;;;;;;;;;;5087649;28;20177;-48
2021/03/25 13:30:55;;;;;;;46.58;30.30;;;;;;;;;;5084051;28;20181;-48
2021/03/25 13:33:21;;;;;;;45.97;31.15;;;;;;;;;;5089274;28;20216;-48
2021/03/25 13:35:48;;;;;;;42.55;29.17;;;;;;;;;;5086028;28;20224;-48
2021/03/25 13:38:14;;;;;;;42.15;29.42;;;;;;;;;;5090132;28;20577;-48
2021/03/25 13:40:42;;;;;;;43.45;30.52;;;;;;;;;;5088475;28;20224;-47
2021/03/25 13:43:10;;;;;;;45.40;30.95;;;;;;;;;;5071842;28;20181;-47
2021/03/25 13:45:36;;;;;;;42.28;28.75;;;;;;;;;;5069906;28;20204;-48
2021/03/25 13:48:03;;;;;;;50.67;32.85;;;;;;;;;;5089362;28;20661;-51
2021/03/25 13:50:32;;;;;;;43.38;31.27;;;;;;;;;;5090992;28;20545;-48
2021/03/25 13:52:58;;;;;;;49.70;35.22;;;;;;;;;;5088724;28;20184;-48
2021/03/25 13:55:26;;;;;;;46.72;33.50;;;;;;;;;;5083119;28;20259;-47
2021/03/25 13:57:52;;;;;;;47.15;33.75;;;;;;;;;;5088496;28;20590;-48
2021/03/25 14:00:20;;;;;;;48.85;33.15;;;;;;;;;;5086706;28;20197;-48
2021/03/25 14:02:46;;;;;;;50.63;35.58;;;;;;;;;;5070296;28;20184;-48
2021/03/25 14:05:13;;;;;;;49.17;33.80;;;;;;;;;;5088878;28;20204;-48
2021/03/25 14:07:38;;;;;;;52.40;36.30;;;;;;;;;;5087209;28;20499;-48
2021/03/25 14:10:04;;;;;;;46.85;32.80;;;;;;;;;;5071239;28;20231;-47
2021/03/25 14:12:30;;;;;;;48.05;33.00;;;;;;;;;;5087316;28;20196;-49
2021/03/25 14:14:55;;;;;;;49.35;31.85;;;;;;;;;;5083022;28;20212;-48
2021/03/25 14:17:20;;;;;;;46.33;32.90;;;;;;;;;;5089183;28;20216;-47
2021/03/25 14:19:45;;;;;;;49.97;33.40;;;;;;;;;;5086794;28;20333;-48
2021/03/25 14:22:11;;;;;;;47.65;33.20;;;;;;;;;;5088509;28;20848;-48
2021/03/25 14:24:39;;;;;;;52.45;33.20;;;;;;;;;;5085911;28;20196;-48
2021/03/25 14:27:04;;;;;;;50.30;31.90;;;;;;;;;;5086218;28;20191;-47
2021/03/25 14:29:30;;;;;;;50.45;33.05;;;;;;;;;;5085541;28;20193;-47
2021/03/25 14:31:55;;;;;;;48.38;32.47;;;;;;;;;;5086388;28;20207;-47
2021/03/25 14:34:20;;;;;;;48.50;32.28;;;;;;;;;;5085703;28;20212;-47
2021/03/25 14:36:45;;;;;;;49.47;32.47;;;;;;;;;;5086686;28;20206;-47
2021/03/25 14:39:11;;;;;;;50.08;31.90;;;;;;;;;;5087662;28;20188;-47
2021/03/25 14:41:36;;;;;;;45.45;31.20;;;;;;;;;;5083815;28;20267;-48
2021/03/25 14:44:02;;;;;;;46.00;31.98;;;;;;;;;;5089525;28;20188;-47
2021/03/25 14:46:27;;;;;;;46.03;31.50;;;;;;;;;;5085372;28;20691;-47
2021/03/25 14:48:52;;;;;;;47.30;31.45;;;;;;;;;;5086713;28;20188;-48
2021/03/25 14:51:19;;;;;;;47.10;31.13;;;;;;;;;;5086076;28;20185;-48
2021/03/25 14:53:44;;;;;;;49.75;32.28;;;;;;;;;;5059293;28;20189;-47